createdAt,value
2019-02-21T00:01:46.514Z,13.57
2019-02-21T00:04:15.963Z,13.83
2019-02-21T00:06:45.036Z,14.43
2019-02-21T00:09:14.542Z,14.40
2019-02-21T00:11:43.656Z,13.80
2019-02-21T00:14:12.809Z,13.40
2019-02-21T00:16:42.180Z,13.53
2019-02-21T00:19:11.388Z,13.77
2019-02-21T00:21:40.821Z,13.93
2019-02-21T00:24:09.980Z,13.50
2019-02-21T00:26:39.674Z,13.70
2019-02-21T00:29:09.499Z,15.28
2019-02-21T00:31:40.227Z,14.27
2019-02-21T00:34:10.000Z,13.88
2019-02-21T00:36:39.937Z,14.35
2019-02-21T00:39:09.943Z,15.35
2019-02-21T00:41:40.153Z,14.80
2019-02-21T00:44:10.634Z,14.47
2019-02-21T00:46:40.344Z,14.20
2019-02-21T00:49:11.583Z,13.80
2019-02-21T00:51:41.373Z,14.73
2019-02-21T00:54:11.208Z,14.65
2019-02-21T00:56:41.017Z,14.07
2019-02-21T00:59:11.144Z,14.70
2019-02-21T01:01:40.796Z,14.45
2019-02-21T01:04:10.909Z,14.28
2019-02-21T01:06:40.940Z,14.10
2019-02-21T01:09:10.385Z,15.43
2019-02-21T01:11:39.777Z,14.30
2019-02-21T01:14:09.467Z,13.83
2019-02-21T01:16:38.545Z,13.20
2019-02-21T01:19:08.098Z,13.60
2019-02-21T01:21:38.139Z,14.40
2019-02-21T01:24:07.793Z,14.00
2019-02-21T01:26:36.841Z,14.80
2019-02-21T01:29:06.160Z,15.10
2019-02-21T01:31:35.332Z,14.75
2019-02-21T01:34:04.500Z,14.27
2019-02-21T01:36:34.064Z,14.10
2019-02-21T01:39:04.192Z,14.50
2019-02-21T01:41:33.566Z,14.00
2019-02-21T01:44:04.561Z,13.73
2019-02-21T01:46:33.470Z,13.87
2019-02-21T01:49:02.808Z,13.57
2019-02-21T01:51:31.938Z,13.80
2019-02-21T01:54:01.093Z,12.73
2019-02-21T01:56:30.228Z,12.87
2019-02-21T01:58:59.398Z,13.57
2019-02-21T02:01:28.638Z,13.10
2019-02-21T02:03:58.066Z,12.47
2019-02-21T02:06:27.885Z,12.87
2019-02-21T02:08:56.913Z,12.97
2019-02-21T02:11:26.328Z,12.43
2019-02-21T02:13:55.508Z,12.43
2019-02-21T02:16:24.768Z,12.83
2019-02-21T02:18:54.008Z,12.97
2019-02-21T02:21:23.126Z,13.37
2019-02-21T02:23:52.550Z,12.47
2019-02-21T02:26:21.692Z,12.63
2019-02-21T02:28:51.086Z,11.60
2019-02-21T02:31:23.375Z,12.93
2019-02-21T02:33:51.730Z,13.80
2019-02-21T02:36:20.954Z,13.43
2019-02-21T02:38:50.068Z,14.03
2019-02-21T02:41:19.509Z,13.30
2019-02-21T02:43:49.111Z,14.33
2019-02-21T02:46:18.267Z,15.27
2019-02-21T02:48:47.860Z,13.87
2019-02-21T02:51:17.196Z,14.33
2019-02-21T02:53:46.321Z,13.63
2019-02-21T02:56:15.552Z,13.20
2019-02-21T02:58:46.396Z,14.83
2019-02-21T03:01:16.364Z,14.33
2019-02-21T03:03:45.600Z,14.40
2019-02-21T03:06:15.056Z,15.10
2019-02-21T03:08:44.155Z,15.60
2019-02-21T03:11:13.252Z,16.20
2019-02-21T03:13:42.396Z,14.10
2019-02-21T03:16:11.830Z,14.33
2019-02-21T03:18:41.128Z,14.43
2019-02-21T03:21:10.800Z,14.18
2019-02-21T03:23:40.048Z,14.80
2019-02-21T03:26:09.411Z,13.27
2019-02-21T03:28:38.890Z,13.63
2019-02-21T03:31:08.946Z,13.50
2019-02-21T03:33:38.321Z,13.33
2019-02-21T03:36:07.966Z,14.10
2019-02-21T03:38:37.485Z,14.80
2019-02-21T03:41:06.898Z,14.23
2019-02-21T03:43:36.268Z,13.43
2019-02-21T03:46:05.682Z,13.67
2019-02-21T03:48:34.825Z,13.83
2019-02-21T03:51:04.036Z,13.50
2019-02-21T03:53:33.541Z,15.13
2019-02-21T03:56:02.707Z,13.75
2019-02-21T03:58:31.900Z,14.55
2019-02-21T04:01:02.116Z,14.97
2019-02-21T04:03:31.558Z,13.90
2019-02-21T04:06:01.795Z,15.43
2019-02-21T04:08:32.644Z,14.43
2019-02-21T04:11:01.749Z,15.00
2019-02-21T04:13:30.959Z,15.57
2019-02-21T04:16:00.450Z,14.93
2019-02-21T04:18:30.681Z,15.67
2019-02-21T04:21:00.064Z,14.57
2019-02-21T04:23:29.205Z,14.67
2019-02-21T04:25:58.582Z,15.53
2019-02-21T04:28:27.852Z,14.90
2019-02-21T04:30:56.933Z,15.35
2019-02-21T04:33:26.082Z,14.97
2019-02-21T04:35:55.260Z,15.27
2019-02-21T04:38:24.316Z,15.58
2019-02-21T04:40:53.438Z,14.90
2019-02-21T04:43:22.608Z,15.20
2019-02-21T04:45:51.709Z,14.60
2019-02-21T04:48:20.785Z,15.63
2019-02-21T04:50:50.175Z,15.10
2019-02-21T04:53:20.548Z,15.80
2019-02-21T04:55:50.352Z,15.03
2019-02-21T04:58:20.714Z,14.27
2019-02-21T05:00:50.648Z,15.25
2019-02-21T05:03:21.379Z,14.97
2019-02-21T05:05:53.403Z,14.50
2019-02-21T05:08:23.784Z,15.30
2019-02-21T05:10:52.875Z,15.47
2019-02-21T05:13:22.354Z,16.07
2019-02-21T05:15:51.524Z,15.70
2019-02-21T05:18:21.001Z,15.23
2019-02-21T05:20:51.335Z,16.05
2019-02-21T05:23:21.652Z,14.70
2019-02-21T05:25:51.295Z,15.53
2019-02-21T05:28:29.086Z,16.40
2019-02-21T05:31:06.154Z,15.18
2019-02-21T05:33:53.554Z,14.80
2019-02-21T05:36:40.065Z,15.77
2019-02-21T05:39:23.027Z,16.43
2019-02-21T05:41:58.681Z,16.60
2019-02-21T05:44:40.137Z,16.87
2019-02-21T05:47:22.664Z,17.10
2019-02-21T05:50:09.672Z,16.82
2019-02-21T05:53:04.044Z,16.43
2019-02-21T05:55:45.899Z,16.77
2019-02-21T05:58:34.144Z,17.77
2019-02-21T06:01:17.197Z,18.37
2019-02-21T06:04:04.470Z,17.20
2019-02-21T06:06:43.618Z,18.03
2019-02-21T06:09:31.701Z,19.57
2019-02-21T06:12:20.121Z,18.80
2019-02-21T06:15:20.102Z,19.83
2019-02-21T06:18:05.760Z,19.23
2019-02-21T06:20:43.597Z,17.63
2019-02-21T06:23:19.292Z,19.53
2019-02-21T06:26:25.972Z,17.67
2019-02-21T06:29:05.021Z,18.37
2019-02-21T06:31:34.125Z,17.23
2019-02-21T06:34:03.764Z,17.23
2019-02-21T06:36:33.407Z,17.45
2019-02-21T06:39:02.972Z,19.40
2019-02-21T06:41:32.800Z,17.57
2019-02-21T06:44:02.280Z,16.70
2019-02-21T06:46:31.483Z,17.97
2019-02-21T06:49:00.940Z,18.10
2019-02-21T06:51:31.524Z,19.82
2019-02-21T06:54:01.089Z,22.13
2019-02-21T06:56:30.569Z,20.77
2019-02-21T06:58:59.766Z,20.60
2019-02-21T07:01:29.503Z,19.60
2019-02-21T07:03:59.056Z,19.60
2019-02-21T07:06:31.943Z,19.30
2019-02-21T07:09:00.000Z,20.92
2019-02-21T07:11:29.536Z,20.62
2019-02-21T07:13:58.612Z,20.10
2019-02-21T07:16:27.858Z,19.20
2019-02-21T07:18:56.872Z,21.37
2019-02-21T07:21:26.308Z,19.70
2019-02-21T07:23:56.076Z,19.93
2019-02-21T07:26:27.568Z,20.27
2019-02-21T07:28:58.341Z,19.53
2019-02-21T07:31:29.171Z,19.03
2019-02-21T07:34:01.243Z,20.73
2019-02-21T07:36:29.383Z,18.77
2019-02-21T07:39:13.663Z,18.33
2019-02-21T07:41:29.672Z,16.90
2019-02-21T07:43:58.784Z,18.50
2019-02-21T07:46:27.893Z,18.20
2019-02-21T07:48:57.360Z,17.30
2019-02-21T07:51:26.850Z,18.25
2019-02-21T07:53:57.643Z,18.20
2019-02-21T07:56:27.230Z,17.77
2019-02-21T07:58:57.717Z,18.02
2019-02-21T08:01:27.380Z,17.12
2019-02-21T08:03:57.453Z,18.53
2019-02-21T08:06:28.027Z,18.37
2019-02-21T08:08:57.796Z,18.60
2019-02-21T08:11:27.709Z,18.37
2019-02-21T08:13:59.435Z,19.70
2019-02-21T08:16:29.314Z,18.13
2019-02-21T08:18:58.447Z,18.63
2019-02-21T08:21:29.401Z,18.90
2019-02-21T08:23:59.626Z,19.10
2019-02-21T08:26:28.820Z,18.90
2019-02-21T08:28:58.230Z,19.15
2019-02-21T08:31:28.267Z,20.13
2019-02-21T08:34:30.260Z,18.55
2019-02-21T08:36:59.612Z,19.03
2019-02-21T08:39:28.962Z,20.00
2019-02-21T08:41:59.290Z,20.37
2019-02-21T08:44:29.386Z,19.02
2019-02-21T08:46:59.090Z,21.10
2019-02-21T08:49:29.381Z,20.10
2019-02-21T08:51:59.638Z,19.65
2019-02-21T08:54:29.467Z,20.05
2019-02-21T08:56:59.368Z,20.33
2019-02-21T08:59:29.551Z,20.05
2019-02-21T09:01:59.553Z,20.62
2019-02-21T09:04:29.921Z,20.87
2019-02-21T09:07:00.028Z,19.87
2019-02-21T09:09:29.727Z,20.00
2019-02-21T09:11:59.738Z,21.07
2019-02-21T09:14:29.816Z,20.87
2019-02-21T09:16:59.744Z,20.93
2019-02-21T09:19:30.604Z,20.17
2019-02-21T09:22:00.225Z,21.90
2019-02-21T09:24:38.755Z,21.83
2019-02-21T09:27:02.397Z,22.13
2019-02-21T09:29:31.603Z,20.03
2019-02-21T09:32:01.029Z,20.77
2019-02-21T09:34:30.832Z,21.63
2019-02-21T09:37:01.473Z,18.43
2019-02-21T09:39:31.016Z,21.70
2019-02-21T09:42:00.813Z,21.70
2019-02-21T09:44:30.880Z,21.13
2019-02-21T09:47:01.295Z,22.10
2019-02-21T09:49:31.445Z,22.37
2019-02-21T09:52:01.381Z,22.43
2019-02-21T09:54:31.485Z,22.55
2019-02-21T09:57:12.485Z,22.20
2019-02-21T09:59:32.481Z,22.73
2019-02-21T10:02:01.606Z,22.58
2019-02-21T10:04:32.550Z,22.13
2019-02-21T10:07:02.133Z,22.93
2019-02-21T10:09:32.101Z,22.13
2019-02-21T10:12:02.237Z,24.90
2019-02-21T10:14:32.293Z,23.30
2019-02-21T10:17:02.584Z,23.83
2019-02-21T10:19:32.367Z,23.85
2019-02-21T10:22:04.361Z,24.17
2019-02-21T10:24:32.613Z,25.35
2019-02-21T10:27:05.066Z,23.87
2019-02-21T10:29:34.238Z,25.03
2019-02-21T10:32:03.438Z,24.37
2019-02-21T10:34:42.744Z,23.77
2019-02-21T10:37:05.935Z,23.83
2019-02-21T10:39:35.004Z,24.47
2019-02-21T10:42:04.192Z,23.50
2019-02-21T10:44:33.375Z,25.37
2019-02-21T10:47:03.528Z,25.03
2019-02-21T10:49:33.817Z,26.33
2019-02-21T10:52:03.836Z,24.77
2019-02-21T10:54:34.057Z,28.30
2019-02-21T10:57:03.704Z,27.37
2019-02-21T10:59:32.949Z,26.30
2019-02-21T11:02:02.021Z,26.48
2019-02-21T11:04:31.411Z,26.63
2019-02-21T11:07:01.062Z,28.30
2019-02-21T11:09:30.304Z,25.87
2019-02-21T11:12:00.325Z,25.82
2019-02-21T11:14:29.444Z,27.00
2019-02-21T11:16:58.496Z,26.00
2019-02-21T11:19:29.158Z,27.50
2019-02-21T11:21:58.316Z,25.57
2019-02-21T11:24:27.539Z,27.20
2019-02-21T11:26:57.057Z,26.67
2019-02-21T11:29:26.425Z,25.73
2019-02-21T11:31:55.956Z,25.95
2019-02-21T11:34:25.224Z,25.08
2019-02-21T11:36:55.142Z,26.10
2019-02-21T11:39:24.679Z,23.77
2019-02-21T11:41:53.837Z,25.63
2019-02-21T11:44:22.990Z,25.30
2019-02-21T11:46:53.365Z,24.20
2019-02-21T11:49:22.477Z,23.98
2019-02-21T11:51:51.504Z,23.53
2019-02-21T11:54:26.970Z,23.07
2019-02-21T11:56:51.476Z,22.30
2019-02-21T11:59:20.568Z,22.50
2019-02-21T12:01:49.737Z,20.63
2019-02-21T12:04:19.617Z,20.43
2019-02-21T12:06:49.004Z,20.43
2019-02-21T12:09:18.171Z,18.87
2019-02-21T12:11:47.621Z,19.70
2019-02-21T12:14:16.679Z,20.13
2019-02-21T12:16:46.168Z,19.63
2019-02-21T12:19:15.429Z,18.87
2019-02-21T12:21:44.494Z,19.43
2019-02-21T12:24:13.861Z,18.97
2019-02-21T12:26:43.312Z,18.87
2019-02-21T12:29:12.412Z,17.50
2019-02-21T12:31:41.608Z,19.27
2019-02-21T12:34:10.808Z,18.70
2019-02-21T12:36:39.910Z,18.37
2019-02-21T12:39:10.190Z,18.00
2019-02-21T12:41:40.276Z,19.90
2019-02-21T12:44:10.891Z,18.17
2019-02-21T12:46:40.916Z,19.95
2019-02-21T12:49:10.826Z,19.17
2019-02-21T12:51:41.120Z,19.60
2019-02-21T12:54:10.484Z,19.52
2019-02-21T12:56:41.024Z,19.95
2019-02-21T12:59:11.110Z,20.68
2019-02-21T13:01:40.936Z,20.60
2019-02-21T13:04:11.007Z,16.70
2019-02-21T13:06:41.441Z,16.23
2019-02-21T13:09:11.225Z,16.55
2019-02-21T13:11:42.005Z,16.57
2019-02-21T13:14:11.320Z,17.00
2019-02-21T13:16:41.630Z,17.13
2019-02-21T13:19:11.395Z,16.07
2019-02-21T13:21:41.816Z,16.25
2019-02-21T13:24:11.615Z,16.00
2019-02-21T13:26:41.972Z,16.80
2019-02-21T13:29:11.926Z,17.00
2019-02-21T13:31:42.357Z,16.48
2019-02-21T13:34:12.283Z,16.73
2019-02-21T13:36:42.073Z,16.73
2019-02-21T13:39:12.110Z,16.77
2019-02-21T13:41:42.105Z,16.13
2019-02-21T13:44:13.376Z,16.50
2019-02-21T13:46:42.464Z,14.73
2019-02-21T13:49:12.485Z,15.95
2019-02-21T13:51:43.424Z,16.65
2019-02-21T13:54:12.555Z,16.40
2019-02-21T13:56:41.655Z,16.23
2019-02-21T13:59:11.200Z,16.60
2019-02-21T14:01:40.563Z,16.53
2019-02-21T14:04:09.732Z,17.83
2019-02-21T14:06:39.129Z,17.30
2019-02-21T14:09:08.213Z,17.67
2019-02-21T14:11:37.970Z,16.97
2019-02-21T14:14:07.468Z,18.43
2019-02-21T14:16:46.260Z,18.37
2019-02-21T14:19:07.388Z,18.17
2019-02-21T14:21:36.397Z,18.23
2019-02-21T14:24:06.172Z,18.90
2019-02-21T14:26:35.269Z,18.97
2019-02-21T14:29:04.767Z,19.83
2019-02-21T14:31:34.016Z,19.00
2019-02-21T14:34:03.224Z,20.20
2019-02-21T14:36:32.473Z,19.70
2019-02-21T14:39:02.210Z,19.43
2019-02-21T14:41:31.689Z,19.93
2019-02-21T14:44:00.857Z,19.83
2019-02-21T14:46:33.186Z,19.57
2019-02-21T14:49:02.659Z,18.37
2019-02-21T14:51:32.096Z,19.20
2019-02-21T14:54:01.658Z,20.10
2019-02-21T14:56:31.382Z,19.50
2019-02-21T14:59:00.484Z,18.77
2019-02-21T15:01:29.952Z,19.42
2019-02-21T15:03:59.694Z,19.73
2019-02-21T15:06:28.776Z,18.93
2019-02-21T15:08:58.979Z,18.70
2019-02-21T15:11:28.604Z,18.27
2019-02-21T15:13:58.260Z,18.90
2019-02-21T15:16:28.896Z,18.40
2019-02-21T15:18:58.117Z,17.93
2019-02-21T15:21:27.240Z,18.27
2019-02-21T15:23:56.496Z,18.53
2019-02-21T15:26:26.153Z,19.20
2019-02-21T15:28:55.380Z,19.15
2019-02-21T15:31:24.694Z,19.10
2019-02-21T15:33:54.048Z,20.02
2019-02-21T15:36:23.160Z,19.97
2019-02-21T15:38:52.365Z,19.43
2019-02-21T15:41:22.061Z,20.47
2019-02-21T15:43:51.300Z,20.03
2019-02-21T15:46:20.791Z,19.83
2019-02-21T15:48:50.325Z,20.23
2019-02-21T15:51:19.420Z,20.33
2019-02-21T15:53:48.885Z,20.63
2019-02-21T15:56:19.412Z,20.10
2019-02-21T15:58:49.737Z,20.87
2019-02-21T16:01:18.841Z,21.50
2019-02-21T16:03:48.005Z,21.30
2019-02-21T16:06:17.755Z,20.23
2019-02-21T16:08:47.800Z,22.07
2019-02-21T16:11:17.613Z,21.50
2019-02-21T16:13:46.887Z,22.13
2019-02-21T16:16:17.845Z,23.13
2019-02-21T16:18:47.316Z,21.60
2019-02-21T16:21:16.795Z,21.40
2019-02-21T16:23:46.204Z,21.63
2019-02-21T16:26:15.236Z,21.48
2019-02-21T16:28:44.685Z,22.47
2019-02-21T16:31:14.220Z,22.37
2019-02-21T16:33:43.400Z,23.43
2019-02-21T16:36:12.984Z,22.13
2019-02-21T16:38:42.060Z,22.30
2019-02-21T16:41:11.142Z,22.30
2019-02-21T16:43:40.312Z,22.90
2019-02-21T16:46:09.432Z,22.97
2019-02-21T16:48:38.900Z,23.60
2019-02-21T16:51:07.981Z,22.87
2019-02-21T16:53:37.416Z,22.43
2019-02-21T16:56:06.596Z,22.73
2019-02-21T16:58:35.712Z,23.23
2019-02-21T17:01:05.157Z,22.93
2019-02-21T17:03:34.269Z,24.10
2019-02-21T17:06:03.719Z,24.87
2019-02-21T17:08:32.816Z,23.57
2019-02-21T17:11:01.944Z,24.30
2019-02-21T17:13:31.757Z,23.60
2019-02-21T17:16:01.571Z,24.30
2019-02-21T17:18:32.160Z,23.42
2019-02-21T17:21:01.464Z,22.42
2019-02-21T17:23:30.961Z,22.67
2019-02-21T17:26:00.244Z,22.37
2019-02-21T17:28:29.456Z,19.62
2019-02-21T17:30:58.572Z,21.60
2019-02-21T17:33:27.696Z,20.03
2019-02-21T17:35:57.445Z,19.92
2019-02-21T17:38:28.333Z,21.03
2019-02-21T17:43:27.217Z,21.17
2019-02-21T17:45:57.153Z,21.55
2019-02-21T17:48:27.166Z,22.43
2019-02-21T17:50:57.185Z,22.30
2019-02-21T17:53:28.679Z,21.67
2019-02-21T17:55:58.132Z,20.97
2019-02-21T17:58:27.529Z,20.80
2019-02-21T18:00:57.684Z,20.93
2019-02-21T18:03:27.880Z,21.37
2019-02-21T18:05:57.671Z,21.57
2019-02-21T18:08:28.341Z,22.17
2019-02-21T18:10:57.530Z,21.63
2019-02-21T18:13:27.568Z,21.80
2019-02-21T18:15:57.652Z,22.43
2019-02-21T18:18:28.079Z,23.27
2019-02-21T18:20:57.956Z,23.80
2019-02-21T18:23:28.129Z,25.30
2019-02-21T18:26:26.252Z,26.75
2019-02-21T18:28:55.372Z,25.17
2019-02-21T18:31:25.417Z,24.60
2019-02-21T18:33:54.524Z,26.47
2019-02-21T18:36:23.652Z,26.87
2019-02-21T18:38:53.030Z,25.67
2019-02-21T18:41:22.172Z,25.70
2019-02-21T18:43:52.266Z,26.83
2019-02-21T18:46:22.601Z,26.20
2019-02-21T18:48:52.744Z,27.47
2019-02-21T18:51:21.825Z,27.63
2019-02-21T18:53:54.080Z,27.97
2019-02-21T18:56:23.257Z,27.70
2019-02-21T18:58:52.836Z,27.63
2019-02-21T19:01:22.464Z,28.30
2019-02-21T19:03:52.938Z,29.60
2019-02-21T19:06:22.081Z,27.53
2019-02-21T19:08:52.532Z,28.30
2019-02-21T19:11:21.865Z,29.53
2019-02-21T19:13:50.998Z,28.83
2019-02-21T19:16:19.999Z,28.60
2019-02-21T19:18:49.236Z,29.73
2019-02-21T19:21:18.926Z,29.73
2019-02-21T19:23:48.217Z,30.00
2019-02-21T19:26:17.422Z,30.27
2019-02-21T19:28:46.603Z,30.75
2019-02-21T19:31:18.881Z,30.80
2019-02-21T19:33:48.039Z,31.77
2019-02-21T19:36:17.949Z,31.17
2019-02-21T19:38:47.809Z,30.57
2019-02-21T19:41:17.180Z,31.43
2019-02-21T19:43:47.363Z,29.37
2019-02-21T19:46:17.455Z,30.57
2019-02-21T19:48:47.724Z,32.83
2019-02-21T19:51:17.273Z,30.80
2019-02-21T19:53:46.926Z,31.50
2019-02-21T19:56:16.091Z,30.75
2019-02-21T19:58:45.165Z,31.63
2019-02-21T20:01:14.901Z,31.17
2019-02-21T20:03:43.980Z,31.20
2019-02-21T20:06:13.472Z,32.23
2019-02-21T20:08:44.560Z,31.03
2019-02-21T20:11:15.534Z,31.60
2019-02-21T20:13:44.674Z,29.80
2019-02-21T20:16:14.200Z,30.17
2019-02-21T20:18:43.571Z,30.23
2019-02-21T20:21:12.772Z,31.03
2019-02-21T20:23:41.864Z,31.47
2019-02-21T20:26:18.435Z,31.13
2019-02-21T20:28:42.752Z,31.37
2019-02-21T20:31:11.862Z,31.70
2019-02-21T20:33:41.224Z,32.80
2019-02-21T20:36:10.382Z,32.03
2019-02-21T20:38:39.491Z,32.50
2019-02-21T20:41:08.700Z,31.37
2019-02-21T20:43:37.756Z,32.43
2019-02-21T20:46:06.860Z,33.60
2019-02-21T20:48:36.268Z,32.77
2019-02-21T20:51:05.524Z,31.73
2019-02-21T20:53:35.116Z,33.80
2019-02-21T20:56:06.204Z,31.23
2019-02-21T20:58:35.525Z,30.17
2019-02-21T21:01:06.719Z,29.30
2019-02-21T21:03:36.192Z,27.70
2019-02-21T21:06:05.670Z,25.93
2019-02-21T21:08:42.747Z,26.33
2019-02-21T21:11:06.032Z,27.80
2019-02-21T21:13:35.735Z,28.80
2019-02-21T21:16:04.834Z,28.73
2019-02-21T21:18:34.040Z,30.13
2019-02-21T21:21:03.437Z,29.97
2019-02-21T21:23:32.608Z,30.83
2019-02-21T21:26:02.656Z,33.07
2019-02-21T21:28:31.926Z,32.53
2019-02-21T21:31:01.212Z,30.77
2019-02-21T21:33:31.142Z,31.40
2019-02-21T21:36:00.904Z,30.40
2019-02-21T21:38:31.090Z,34.20
2019-02-21T21:41:01.237Z,33.57
2019-02-21T21:43:30.912Z,30.83
2019-02-21T21:46:00.923Z,33.00
2019-02-21T21:48:31.012Z,33.73
2019-02-21T21:51:01.020Z,32.42
2019-02-21T21:53:31.085Z,33.60
2019-02-21T21:56:01.140Z,34.50
2019-02-21T21:58:31.164Z,32.85
2019-02-21T22:01:01.281Z,33.03
2019-02-21T22:03:31.579Z,34.33
2019-02-21T22:06:01.840Z,35.00
2019-02-21T22:08:31.469Z,34.90
2019-02-21T22:11:01.593Z,34.97
2019-02-21T22:13:31.998Z,34.43
2019-02-21T22:16:01.668Z,36.63
2019-02-21T22:18:31.681Z,35.10
2019-02-21T22:21:00.772Z,36.47
2019-02-21T22:23:30.322Z,35.25
2019-02-21T22:25:59.397Z,35.83
2019-02-21T22:28:28.513Z,36.40
2019-02-21T22:30:58.263Z,35.43
2019-02-21T22:33:27.408Z,37.10
2019-02-21T22:35:56.668Z,37.03
2019-02-21T22:38:25.860Z,36.23
2019-02-21T22:40:55.001Z,36.50
2019-02-21T22:43:25.388Z,36.20
2019-02-21T22:45:54.378Z,35.27
2019-02-21T22:48:23.977Z,36.00
2019-02-21T22:50:53.304Z,35.77
2019-02-21T22:53:22.776Z,35.70
2019-02-21T22:55:51.877Z,35.83
2019-02-21T22:58:21.091Z,36.60
2019-02-21T23:01:23.421Z,36.28
2019-02-21T23:03:59.506Z,36.93
2019-02-21T23:06:36.832Z,39.27
2019-02-21T23:09:09.458Z,38.23
2019-02-21T23:11:39.106Z,41.18
2019-02-21T23:14:08.364Z,37.93
2019-02-21T23:16:37.474Z,38.67
2019-02-21T23:19:06.964Z,38.70
2019-02-21T23:21:36.368Z,37.83
2019-02-21T23:24:05.552Z,37.63
2019-02-21T23:26:34.648Z,37.93
2019-02-21T23:29:04.008Z,36.77
2019-02-21T23:31:33.916Z,37.43
2019-02-21T23:34:04.856Z,38.33
2019-02-21T23:36:34.376Z,39.20
2019-02-21T23:39:05.050Z,39.37
2019-02-21T23:41:34.725Z,39.07
2019-02-21T23:44:04.728Z,39.77
2019-02-21T23:46:35.014Z,39.90
2019-02-21T23:49:04.774Z,38.48
2019-02-21T23:51:34.838Z,39.78
2019-02-21T23:54:04.955Z,39.37
2019-02-21T23:56:34.859Z,40.40
2019-02-21T23:59:04.273Z,38.10
